Hardinsburg, Indiana
Current Conditions -  °F | °C
As of 7:56 AM on Friday 19 Dec 2014 (Local Time) from KSDF Reporting Station
Haze Haze  
Wind Chill: 22°   Ceiling: Unl
Heat Index: 27°   Visibility: 6mi
Dew Point: 22°   Wind: 5mph
Humidity: 81%   Direction: 10°N
Pressure: 30.31"   Gusts: NA
Location:  38.46°N, 86.28°W
Report Text: KSDF 191256Z 01004KT 6SM HZ FEW055 SCT250 M03/M06 A3031 RMK AO2 SLP269 T10281056
Loading
Personal Weather Stations






























Interactive Weather Map New forecast layout! Learn more

10-Day Weather Forecast

Advertisements
Track Severe Weather on mobile